sensor_id;sensor_type;location;lat;lon;timestamp;P1;durP1;ratioP1;P2;durP2;ratioP2
78131;SDS011;67381;47.672;9.380;2024-03-08T00:01:22;31.25;;;15.25;;
78131;SDS011;67381;47.672;9.380;2024-03-08T00:03:50;27.95;;;12.80;;
78131;SDS011;67381;47.672;9.380;2024-03-08T00:06:18;24.10;;;13.43;;
78131;SDS011;67381;47.672;9.380;2024-03-08T00:08:45;28.17;;;14.18;;
78131;SDS011;67381;47.672;9.380;2024-03-08T00:11:12;27.85;;;12.63;;
78131;SDS011;67381;47.672;9.380;2024-03-08T00:13:39;26.48;;;12.35;;
78131;SDS011;67381;47.672;9.380;2024-03-08T00:16:06;25.65;;;13.48;;
78131;SDS011;67381;47.672;9.380;2024-03-08T00:18:34;27.63;;;13.70;;
78131;SDS011;67381;47.672;9.380;2024-03-08T00:21:01;25.02;;;13.00;;
78131;SDS011;67381;47.672;9.380;2024-03-08T00:23:29;28.50;;;14.40;;
78131;SDS011;67381;47.672;9.380;2024-03-08T00:25:56;28.40;;;12.73;;
78131;SDS011;67381;47.672;9.380;2024-03-08T00:28:23;24.30;;;12.60;;
78131;SDS011;67381;47.672;9.380;2024-03-08T00:30:51;23.98;;;13.05;;
78131;SDS011;67381;47.672;9.380;2024-03-08T00:33:19;26.70;;;12.32;;
78131;SDS011;67381;47.672;9.380;2024-03-08T00:35:46;24.30;;;12.52;;
78131;SDS011;67381;47.672;9.380;2024-03-08T00:38:14;27.63;;;12.52;;
78131;SDS011;67381;47.672;9.380;2024-03-08T00:40:41;26.17;;;12.80;;
78131;SDS011;67381;47.672;9.380;2024-03-08T00:43:08;21.92;;;11.98;;
78131;SDS011;67381;47.672;9.380;2024-03-08T00:45:35;25.38;;;12.10;;
78131;SDS011;67381;47.672;9.380;2024-03-08T00:48:03;24.77;;;12.55;;
78131;SDS011;67381;47.672;9.380;2024-03-08T00:50:32;23.25;;;11.88;;
78131;SDS011;67381;47.672;9.380;2024-03-08T00:53:00;25.65;;;12.60;;
78131;SDS011;67381;47.672;9.380;2024-03-08T00:55:28;28.23;;;13.23;;
78131;SDS011;67381;47.672;9.380;2024-03-08T00:57:56;25.95;;;13.10;;
78131;SDS011;67381;47.672;9.380;2024-03-08T01:00:23;24.27;;;12.90;;
78131;SDS011;67381;47.672;9.380;2024-03-08T01:02:51;23.40;;;13.40;;
78131;SDS011;67381;47.672;9.380;2024-03-08T01:05:18;25.88;;;12.95;;
78131;SDS011;67381;47.672;9.380;2024-03-08T01:07:46;24.38;;;13.45;;
78131;SDS011;67381;47.672;9.380;2024-03-08T01:10:13;26.45;;;13.65;;
78131;SDS011;67381;47.672;9.380;2024-03-08T01:12:40;26.05;;;13.25;;
78131;SDS011;67381;47.672;9.380;2024-03-08T01:15:07;26.83;;;14.02;;
78131;SDS011;67381;47.672;9.380;2024-03-08T01:17:34;25.20;;;12.43;;
78131;SDS011;67381;47.672;9.380;2024-03-08T01:20:02;27.25;;;13.27;;
78131;SDS011;67381;47.672;9.380;2024-03-08T01:22:29;26.02;;;13.38;;
78131;SDS011;67381;47.672;9.380;2024-03-08T01:24:56;26.95;;;13.40;;
78131;SDS011;67381;47.672;9.380;2024-03-08T01:27:23;20.75;;;11.32;;
78131;SDS011;67381;47.672;9.380;2024-03-08T01:29:51;25.40;;;12.13;;
78131;SDS011;67381;47.672;9.380;2024-03-08T01:32:18;23.70;;;11.82;;
78131;SDS011;67381;47.672;9.380;2024-03-08T01:34:46;23.85;;;11.68;;
78131;SDS011;67381;47.672;9.380;2024-03-08T01:37:13;25.08;;;12.43;;
78131;SDS011;67381;47.672;9.380;2024-03-08T01:39:41;24.25;;;12.32;;
78131;SDS011;67381;47.672;9.380;2024-03-08T01:42:08;30.38;;;13.07;;
78131;SDS011;67381;47.672;9.380;2024-03-08T01:44:35;25.50;;;11.90;;
78131;SDS011;67381;47.672;9.380;2024-03-08T01:47:02;24.20;;;12.35;;
78131;SDS011;67381;47.672;9.380;2024-03-08T01:49:29;25.40;;;12.23;;
78131;SDS011;67381;47.672;9.380;2024-03-08T01:51:57;27.10;;;12.52;;
78131;SDS011;67381;47.672;9.380;2024-03-08T01:54:24;26.42;;;13.40;;
78131;SDS011;67381;47.672;9.380;2024-03-08T01:56:51;28.98;;;12.82;;
78131;SDS011;67381;47.672;9.380;2024-03-08T01:59:20;29.00;;;14.10;;
78131;SDS011;67381;47.672;9.380;2024-03-08T02:01:47;24.20;;;12.55;;
78131;SDS011;67381;47.672;9.380;2024-03-08T02:04:14;25.05;;;11.30;;
78131;SDS011;67381;47.672;9.380;2024-03-08T02:06:41;28.92;;;12.45;;
78131;SDS011;67381;47.672;9.380;2024-03-08T02:09:08;23.52;;;12.57;;
78131;SDS011;67381;47.672;9.380;2024-03-08T02:11:37;23.42;;;11.35;;
78131;SDS011;67381;47.672;9.380;2024-03-08T02:14:04;25.67;;;12.13;;
78131;SDS011;67381;47.672;9.380;2024-03-08T02:16:33;26.08;;;13.95;;
78131;SDS011;67381;47.672;9.380;2024-03-08T02:19:00;27.52;;;12.30;;
78131;SDS011;67381;47.672;9.380;2024-03-08T02:21:27;22.40;;;12.05;;
78131;SDS011;67381;47.672;9.380;2024-03-08T02:23:55;24.17;;;13.05;;
78131;SDS011;67381;47.672;9.380;2024-03-08T02:26:22;26.30;;;13.05;;
78131;SDS011;67381;47.672;9.380;2024-03-08T02:28:49;24.48;;;12.90;;
78131;SDS011;67381;47.672;9.380;2024-03-08T02:31:16;25.10;;;12.23;;
78131;SDS011;67381;47.672;9.380;2024-03-08T02:33:43;25.20;;;12.50;;
78131;SDS011;67381;47.672;9.380;2024-03-08T02:36:11;26.65;;;11.73;;
78131;SDS011;67381;47.672;9.380;2024-03-08T02:38:39;26.38;;;12.45;;
78131;SDS011;67381;47.672;9.380;2024-03-08T02:41:08;24.38;;;12.90;;
78131;SDS011;67381;47.672;9.380;2024-03-08T02:43:35;20.20;;;11.52;;
78131;SDS011;67381;47.672;9.380;2024-03-08T02:46:02;22.08;;;12.02;;
78131;SDS011;67381;47.672;9.380;2024-03-08T02:48:29;25.17;;;13.50;;
78131;SDS011;67381;47.672;9.380;2024-03-08T02:50:57;21.98;;;11.45;;
78131;SDS011;67381;47.672;9.380;2024-03-08T02:53:24;21.83;;;12.07;;
78131;SDS011;67381;47.672;9.380;2024-03-08T02:55:51;25.15;;;12.60;;
78131;SDS011;67381;47.672;9.380;2024-03-08T02:58:18;25.10;;;11.82;;
78131;SDS011;67381;47.672;9.380;2024-03-08T03:00:45;26.58;;;12.52;;
78131;SDS011;67381;47.672;9.380;2024-03-08T03:03:12;22.42;;;12.48;;
78131;SDS011;67381;47.672;9.380;2024-03-08T03:05:40;25.23;;;13.10;;
78131;SDS011;67381;47.672;9.380;2024-03-08T03:08:09;26.55;;;12.85;;
78131;SDS011;67381;47.672;9.380;2024-03-08T03:10:36;21.33;;;11.68;;
78131;SDS011;67381;47.672;9.380;2024-03-08T03:13:04;24.63;;;11.65;;
78131;SDS011;67381;47.672;9.380;2024-03-08T03:15:35;23.38;;;12.80;;
78131;SDS011;67381;47.672;9.380;2024-03-08T03:18:03;22.60;;;11.45;;
78131;SDS011;67381;47.672;9.380;2024-03-08T03:20:30;23.38;;;11.48;;
78131;SDS011;67381;47.672;9.380;2024-03-08T03:23:06;23.27;;;12.13;;
78131;SDS011;67381;47.672;9.380;2024-03-08T03:25:35;27.63;;;12.65;;
78131;SDS011;67381;47.672;9.380;2024-03-08T03:28:02;25.15;;;11.95;;
78131;SDS011;67381;47.672;9.380;2024-03-08T03:30:30;22.15;;;12.10;;
78131;SDS011;67381;47.672;9.380;2024-03-08T03:33:00;24.35;;;12.50;;
78131;SDS011;67381;47.672;9.380;2024-03-08T03:35:27;23.27;;;11.93;;
78131;SDS011;67381;47.672;9.380;2024-03-08T03:37:55;20.88;;;11.23;;
78131;SDS011;67381;47.672;9.380;2024-03-08T03:40:29;24.85;;;13.30;;
78131;SDS011;67381;47.672;9.380;2024-03-08T03:42:56;22.40;;;11.95;;
78131;SDS011;67381;47.672;9.380;2024-03-08T03:45:23;23.17;;;12.50;;
78131;SDS011;67381;47.672;9.380;2024-03-08T03:47:57;24.98;;;13.50;;
78131;SDS011;67381;47.672;9.380;2024-03-08T03:50:27;23.92;;;11.95;;
78131;SDS011;67381;47.672;9.380;2024-03-08T03:52:54;22.95;;;11.02;;
78131;SDS011;67381;47.672;9.380;2024-03-08T03:55:21;27.63;;;14.13;;
78131;SDS011;67381;47.672;9.380;2024-03-08T03:57:48;24.52;;;11.93;;
78131;SDS011;67381;47.672;9.380;2024-03-08T04:00:16;24.88;;;14.20;;
78131;SDS011;67381;47.672;9.380;2024-03-08T04:02:43;25.67;;;12.05;;
78131;SDS011;67381;47.672;9.380;2024-03-08T04:05:10;26.33;;;12.27;;
78131;SDS011;67381;47.672;9.380;2024-03-08T04:07:38;22.27;;;11.50;;
78131;SDS011;67381;47.672;9.380;2024-03-08T04:10:06;27.50;;;11.95;;
78131;SDS011;67381;47.672;9.380;2024-03-08T04:12:33;23.75;;;12.10;;
78131;SDS011;67381;47.672;9.380;2024-03-08T04:15:01;24.70;;;13.00;;
78131;SDS011;67381;47.672;9.380;2024-03-08T04:17:30;26.88;;;14.93;;
78131;SDS011;67381;47.672;9.380;2024-03-08T04:19:58;25.52;;;12.60;;
78131;SDS011;67381;47.672;9.380;2024-03-08T04:22:25;27.60;;;13.90;;
78131;SDS011;67381;47.672;9.380;2024-03-08T04:24:52;28.25;;;13.13;;
78131;SDS011;67381;47.672;9.380;2024-03-08T04:27:19;30.38;;;14.13;;
78131;SDS011;67381;47.672;9.380;2024-03-08T04:29:46;25.33;;;12.50;;
78131;SDS011;67381;47.672;9.380;2024-03-08T04:32:13;27.58;;;13.70;;
78131;SDS011;67381;47.672;9.380;2024-03-08T04:34:40;30.10;;;14.40;;
78131;SDS011;67381;47.672;9.380;2024-03-08T04:37:09;28.58;;;14.43;;
78131;SDS011;67381;47.672;9.380;2024-03-08T04:39:40;28.77;;;14.05;;
78131;SDS011;67381;47.672;9.380;2024-03-08T04:42:07;28.58;;;13.48;;
78131;SDS011;67381;47.672;9.380;2024-03-08T04:44:36;29.25;;;13.98;;
78131;SDS011;67381;47.672;9.380;2024-03-08T04:47:04;27.35;;;13.40;;
78131;SDS011;67381;47.672;9.380;2024-03-08T04:49:32;29.23;;;14.88;;
78131;SDS011;67381;47.672;9.380;2024-03-08T04:52:01;26.02;;;13.40;;
78131;SDS011;67381;47.672;9.380;2024-03-08T04:54:30;24.90;;;13.45;;
78131;SDS011;67381;47.672;9.380;2024-03-08T04:56:57;29.02;;;14.05;;
78131;SDS011;67381;47.672;9.380;2024-03-08T04:59:24;32.55;;;14.85;;
78131;SDS011;67381;47.672;9.380;2024-03-08T05:01:51;30.65;;;14.40;;
78131;SDS011;67381;47.672;9.380;2024-03-08T05:04:18;28.92;;;13.27;;
78131;SDS011;67381;47.672;9.380;2024-03-08T05:06:45;26.65;;;14.45;;
78131;SDS011;67381;47.672;9.380;2024-03-08T05:09:12;28.33;;;13.95;;
78131;SDS011;67381;47.672;9.380;2024-03-08T05:11:43;28.58;;;14.38;;
78131;SDS011;67381;47.672;9.380;2024-03-08T05:14:14;26.75;;;13.27;;
78131;SDS011;67381;47.672;9.380;2024-03-08T05:16:46;31.17;;;14.70;;
78131;SDS011;67381;47.672;9.380;2024-03-08T05:19:16;27.92;;;14.27;;
78131;SDS011;67381;47.672;9.380;2024-03-08T05:21:44;31.10;;;14.77;;
78131;SDS011;67381;47.672;9.380;2024-03-08T05:24:11;29.83;;;13.80;;
78131;SDS011;67381;47.672;9.380;2024-03-08T05:26:38;29.33;;;15.00;;
78131;SDS011;67381;47.672;9.380;2024-03-08T05:29:05;29.95;;;16.08;;
78131;SDS011;67381;47.672;9.380;2024-03-08T05:31:36;29.88;;;15.10;;
78131;SDS011;67381;47.672;9.380;2024-03-08T05:34:05;29.88;;;14.65;;
78131;SDS011;67381;47.672;9.380;2024-03-08T05:36:32;31.08;;;15.23;;
78131;SDS011;67381;47.672;9.380;2024-03-08T05:38:59;29.45;;;14.27;;
78131;SDS011;67381;47.672;9.380;2024-03-08T05:41:26;31.38;;;15.20;;
78131;SDS011;67381;47.672;9.380;2024-03-08T05:43:53;29.73;;;14.80;;
78131;SDS011;67381;47.672;9.380;2024-03-08T05:46:20;33.33;;;15.63;;
78131;SDS011;67381;47.672;9.380;2024-03-08T05:48:48;28.38;;;14.13;;
78131;SDS011;67381;47.672;9.380;2024-03-08T05:51:15;30.20;;;14.50;;
78131;SDS011;67381;47.672;9.380;2024-03-08T05:53:42;30.75;;;14.73;;
78131;SDS011;67381;47.672;9.380;2024-03-08T05:56:10;34.65;;;16.08;;
78131;SDS011;67381;47.672;9.380;2024-03-08T05:58:37;32.28;;;15.02;;
78131;SDS011;67381;47.672;9.380;2024-03-08T06:01:04;30.33;;;14.95;;
78131;SDS011;67381;47.672;9.380;2024-03-08T06:03:34;31.67;;;14.90;;
78131;SDS011;67381;47.672;9.380;2024-03-08T06:06:01;29.83;;;14.27;;
78131;SDS011;67381;47.672;9.380;2024-03-08T06:08:29;28.70;;;14.30;;
78131;SDS011;67381;47.672;9.380;2024-03-08T06:10:57;36.67;;;15.35;;
78131;SDS011;67381;47.672;9.380;2024-03-08T06:13:25;29.70;;;15.15;;
78131;SDS011;67381;47.672;9.380;2024-03-08T06:15:55;30.23;;;15.55;;
78131;SDS011;67381;47.672;9.380;2024-03-08T06:18:22;33.08;;;14.93;;
78131;SDS011;67381;47.672;9.380;2024-03-08T06:20:49;35.10;;;16.83;;
78131;SDS011;67381;47.672;9.380;2024-03-08T06:23:16;30.10;;;14.23;;
78131;SDS011;67381;47.672;9.380;2024-03-08T06:25:44;27.77;;;13.48;;
78131;SDS011;67381;47.672;9.380;2024-03-08T06:28:11;25.95;;;14.18;;
78131;SDS011;67381;47.672;9.380;2024-03-08T06:30:38;32.53;;;15.57;;
78131;SDS011;67381;47.672;9.380;2024-03-08T06:33:05;35.42;;;15.35;;
78131;SDS011;67381;47.672;9.380;2024-03-08T06:35:33;29.77;;;15.13;;
78131;SDS011;67381;47.672;9.380;2024-03-08T06:38:01;32.25;;;16.67;;
78131;SDS011;67381;47.672;9.380;2024-03-08T06:40:28;30.75;;;15.55;;
78131;SDS011;67381;47.672;9.380;2024-03-08T06:42:56;29.02;;;14.10;;
78131;SDS011;67381;47.672;9.380;2024-03-08T06:45:23;30.30;;;14.23;;
78131;SDS011;67381;47.672;9.380;2024-03-08T06:47:50;30.92;;;14.63;;
78131;SDS011;67381;47.672;9.380;2024-03-08T06:50:17;31.77;;;15.43;;
78131;SDS011;67381;47.672;9.380;2024-03-08T06:52:47;32.03;;;14.60;;
78131;SDS011;67381;47.672;9.380;2024-03-08T06:55:20;34.10;;;15.25;;
78131;SDS011;67381;47.672;9.380;2024-03-08T06:57:47;32.45;;;14.82;;
78131;SDS011;67381;47.672;9.380;2024-03-08T07:00:14;33.28;;;14.50;;
78131;SDS011;67381;47.672;9.380;2024-03-08T07:02:45;33.97;;;14.98;;
78131;SDS011;67381;47.672;9.380;2024-03-08T07:05:12;31.77;;;14.90;;
78131;SDS011;67381;47.672;9.380;2024-03-08T07:07:39;32.22;;;14.93;;
78131;SDS011;67381;47.672;9.380;2024-03-08T07:10:08;29.30;;;13.27;;
78131;SDS011;67381;47.672;9.380;2024-03-08T07:12:38;30.40;;;14.65;;
78131;SDS011;67381;47.672;9.380;2024-03-08T07:15:05;34.28;;;14.30;;
78131;SDS011;67381;47.672;9.380;2024-03-08T07:17:32;30.25;;;13.52;;
78131;SDS011;67381;47.672;9.380;2024-03-08T07:20:02;34.83;;;15.27;;
78131;SDS011;67381;47.672;9.380;2024-03-08T07:22:34;31.65;;;15.45;;
78131;SDS011;67381;47.672;9.380;2024-03-08T07:25:05;33.78;;;16.92;;
78131;SDS011;67381;47.672;9.380;2024-03-08T07:27:34;30.83;;;13.50;;
78131;SDS011;67381;47.672;9.380;2024-03-08T07:30:03;34.10;;;15.27;;
78131;SDS011;67381;47.672;9.380;2024-03-08T07:32:33;32.70;;;14.80;;
78131;SDS011;67381;47.672;9.380;2024-03-08T07:35:01;27.83;;;13.27;;
78131;SDS011;67381;47.672;9.380;2024-03-08T07:37:29;32.58;;;14.40;;
78131;SDS011;67381;47.672;9.380;2024-03-08T07:39:56;28.98;;;13.13;;
78131;SDS011;67381;47.672;9.380;2024-03-08T07:42:24;33.13;;;12.57;;
78131;SDS011;67381;47.672;9.380;2024-03-08T07:44:51;30.05;;;14.00;;
78131;SDS011;67381;47.672;9.380;2024-03-08T07:47:19;27.40;;;12.48;;
78131;SDS011;67381;47.672;9.380;2024-03-08T07:49:47;29.20;;;12.70;;
78131;SDS011;67381;47.672;9.380;2024-03-08T07:52:14;23.48;;;11.25;;
78131;SDS011;67381;47.672;9.380;2024-03-08T07:54:44;25.92;;;13.30;;
78131;SDS011;67381;47.672;9.380;2024-03-08T07:57:12;22.55;;;11.32;;
78131;SDS011;67381;47.672;9.380;2024-03-08T07:59:39;26.35;;;11.82;;
78131;SDS011;67381;47.672;9.380;2024-03-08T08:02:06;24.45;;;11.35;;
78131;SDS011;67381;47.672;9.380;2024-03-08T08:04:33;27.42;;;12.95;;
78131;SDS011;67381;47.672;9.380;2024-03-08T08:07:00;25.83;;;13.10;;
78131;SDS011;67381;47.672;9.380;2024-03-08T08:09:28;23.52;;;11.88;;
78131;SDS011;67381;47.672;9.380;2024-03-08T08:11:55;24.23;;;10.75;;
78131;SDS011;67381;47.672;9.380;2024-03-08T08:14:22;28.30;;;11.82;;
78131;SDS011;67381;47.672;9.380;2024-03-08T08:16:49;22.35;;;11.43;;
78131;SDS011;67381;47.672;9.380;2024-03-08T08:19:19;22.60;;;10.57;;
78131;SDS011;67381;47.672;9.380;2024-03-08T08:21:47;21.42;;;10.57;;
78131;SDS011;67381;47.672;9.380;2024-03-08T08:24:14;21.88;;;10.68;;
78131;SDS011;67381;47.672;9.380;2024-03-08T08:26:41;20.98;;;10.40;;
78131;SDS011;67381;47.672;9.380;2024-03-08T08:29:11;22.98;;;11.63;;
78131;SDS011;67381;47.672;9.380;2024-03-08T08:31:38;22.17;;;10.77;;
78131;SDS011;67381;47.672;9.380;2024-03-08T08:34:05;26.02;;;11.85;;
78131;SDS011;67381;47.672;9.380;2024-03-08T08:36:34;20.40;;;11.00;;
78131;SDS011;67381;47.672;9.380;2024-03-08T08:39:01;21.52;;;10.52;;
78131;SDS011;67381;47.672;9.380;2024-03-08T08:41:30;18.50;;;10.68;;
78131;SDS011;67381;47.672;9.380;2024-03-08T08:43:57;23.38;;;12.13;;
78131;SDS011;67381;47.672;9.380;2024-03-08T08:46:24;23.80;;;10.95;;
78131;SDS011;67381;47.672;9.380;2024-03-08T08:48:53;22.77;;;11.05;;
78131;SDS011;67381;47.672;9.380;2024-03-08T08:51:20;24.15;;;11.55;;
78131;SDS011;67381;47.672;9.380;2024-03-08T08:53:47;23.75;;;11.75;;
78131;SDS011;67381;47.672;9.380;2024-03-08T08:56:14;24.23;;;12.93;;
78131;SDS011;67381;47.672;9.380;2024-03-08T08:58:42;22.15;;;11.35;;
78131;SDS011;67381;47.672;9.380;2024-03-08T09:01:10;20.85;;;12.02;;
78131;SDS011;67381;47.672;9.380;2024-03-08T09:03:37;26.90;;;12.07;;
78131;SDS011;67381;47.672;9.380;2024-03-08T09:06:04;24.30;;;12.43;;
78131;SDS011;67381;47.672;9.380;2024-03-08T09:08:31;24.17;;;11.82;;
78131;SDS011;67381;47.672;9.380;2024-03-08T09:10:59;23.00;;;11.05;;
78131;SDS011;67381;47.672;9.380;2024-03-08T09:13:26;24.13;;;11.73;;
78131;SDS011;67381;47.672;9.380;2024-03-08T09:15:54;21.60;;;11.18;;
78131;SDS011;67381;47.672;9.380;2024-03-08T09:18:21;23.13;;;11.30;;
78131;SDS011;67381;47.672;9.380;2024-03-08T09:20:48;24.45;;;11.75;;
78131;SDS011;67381;47.672;9.380;2024-03-08T09:23:15;25.63;;;12.07;;
78131;SDS011;67381;47.672;9.380;2024-03-08T09:25:43;20.73;;;10.55;;
78131;SDS011;67381;47.672;9.380;2024-03-08T09:28:12;23.55;;;12.00;;
78131;SDS011;67381;47.672;9.380;2024-03-08T09:30:39;20.60;;;11.52;;
78131;SDS011;67381;47.672;9.380;2024-03-08T09:33:07;24.65;;;11.20;;
78131;SDS011;67381;47.672;9.380;2024-03-08T09:35:36;23.52;;;11.80;;
78131;SDS011;67381;47.672;9.380;2024-03-08T09:38:03;21.85;;;10.70;;
78131;SDS011;67381;47.672;9.380;2024-03-08T09:40:31;21.38;;;11.50;;
78131;SDS011;67381;47.672;9.380;2024-03-08T09:42:59;21.00;;;10.13;;
78131;SDS011;67381;47.672;9.380;2024-03-08T09:45:26;21.40;;;11.27;;
78131;SDS011;67381;47.672;9.380;2024-03-08T09:47:53;20.90;;;10.65;;
78131;SDS011;67381;47.672;9.380;2024-03-08T09:50:21;23.10;;;11.23;;
78131;SDS011;67381;47.672;9.380;2024-03-08T09:52:49;22.17;;;11.70;;
78131;SDS011;67381;47.672;9.380;2024-03-08T09:55:16;24.17;;;11.40;;
78131;SDS011;67381;47.672;9.380;2024-03-08T09:57:44;23.20;;;11.60;;
78131;SDS011;67381;47.672;9.380;2024-03-08T10:00:33;21.42;;;10.85;;
78131;SDS011;67381;47.672;9.380;2024-03-08T10:03:00;20.77;;;10.50;;
78131;SDS011;67381;47.672;9.380;2024-03-08T10:05:28;19.70;;;10.73;;
78131;SDS011;67381;47.672;9.380;2024-03-08T10:07:55;19.35;;;9.88;;
78131;SDS011;67381;47.672;9.380;2024-03-08T10:10:22;22.45;;;10.32;;
78131;SDS011;67381;47.672;9.380;2024-03-08T10:12:49;23.38;;;11.05;;
78131;SDS011;67381;47.672;9.380;2024-03-08T10:15:16;20.48;;;11.18;;
78131;SDS011;67381;47.672;9.380;2024-03-08T10:17:43;21.80;;;11.15;;
78131;SDS011;67381;47.672;9.380;2024-03-08T10:20:18;22.88;;;11.10;;
78131;SDS011;67381;47.672;9.380;2024-03-08T10:22:45;19.08;;;9.90;;
78131;SDS011;67381;47.672;9.380;2024-03-08T10:25:16;22.25;;;11.38;;
78131;SDS011;67381;47.672;9.380;2024-03-08T10:27:44;25.58;;;12.18;;
78131;SDS011;67381;47.672;9.380;2024-03-08T10:30:14;25.73;;;11.45;;
78131;SDS011;67381;47.672;9.380;2024-03-08T10:32:42;23.23;;;11.95;;
78131;SDS011;67381;47.672;9.380;2024-03-08T10:35:09;24.38;;;12.50;;
78131;SDS011;67381;47.672;9.380;2024-03-08T10:37:44;23.23;;;10.52;;
78131;SDS011;67381;47.672;9.380;2024-03-08T10:40:16;21.33;;;11.70;;
78131;SDS011;67381;47.672;9.380;2024-03-08T10:45:15;20.70;;;9.93;;
78131;SDS011;67381;47.672;9.380;2024-03-08T10:47:42;22.25;;;10.93;;
78131;SDS011;67381;47.672;9.380;2024-03-08T10:50:14;24.70;;;11.13;;
78131;SDS011;67381;47.672;9.380;2024-03-08T10:52:51;19.88;;;10.85;;
78131;SDS011;67381;47.672;9.380;2024-03-08T10:55:18;21.73;;;11.13;;
78131;SDS011;67381;47.672;9.380;2024-03-08T10:57:47;21.08;;;11.20;;
78131;SDS011;67381;47.672;9.380;2024-03-08T11:00:14;21.83;;;10.77;;
78131;SDS011;67381;47.672;9.380;2024-03-08T11:02:43;22.52;;;11.20;;
78131;SDS011;67381;47.672;9.380;2024-03-08T11:05:11;24.80;;;11.32;;
78131;SDS011;67381;47.672;9.380;2024-03-08T11:07:42;22.33;;;11.13;;
78131;SDS011;67381;47.672;9.380;2024-03-08T11:10:19;23.70;;;11.70;;
78131;SDS011;67381;47.672;9.380;2024-03-08T11:12:47;22.42;;;11.65;;
78131;SDS011;67381;47.672;9.380;2024-03-08T11:15:15;25.42;;;12.65;;
78131;SDS011;67381;47.672;9.380;2024-03-08T11:20:13;19.25;;;10.45;;
78131;SDS011;67381;47.672;9.380;2024-03-08T11:22:55;23.92;;;10.57;;
78131;SDS011;67381;47.672;9.380;2024-03-08T11:28:22;22.02;;;11.77;;
78131;SDS011;67381;47.672;9.380;2024-03-08T11:33:30;20.40;;;10.43;;
78131;SDS011;67381;47.672;9.380;2024-03-08T11:38:41;20.42;;;10.68;;
78131;SDS011;67381;47.672;9.380;2024-03-08T11:41:09;17.63;;;9.13;;
78131;SDS011;67381;47.672;9.380;2024-03-08T11:43:41;19.65;;;10.20;;
78131;SDS011;67381;47.672;9.380;2024-03-08T11:46:15;19.23;;;10.55;;
78131;SDS011;67381;47.672;9.380;2024-03-08T11:48:42;18.45;;;9.68;;
78131;SDS011;67381;47.672;9.380;2024-03-08T11:51:14;19.15;;;9.50;;
78131;SDS011;67381;47.672;9.380;2024-03-08T11:53:41;16.55;;;9.07;;
78131;SDS011;67381;47.672;9.380;2024-03-08T11:56:10;18.17;;;9.35;;
78131;SDS011;67381;47.672;9.380;2024-03-08T11:58:40;18.10;;;9.60;;
78131;SDS011;67381;47.672;9.380;2024-03-08T12:01:08;18.38;;;9.25;;
78131;SDS011;67381;47.672;9.380;2024-03-08T12:03:43;17.85;;;9.93;;
78131;SDS011;67381;47.672;9.380;2024-03-08T12:06:11;20.27;;;9.60;;
78131;SDS011;67381;47.672;9.380;2024-03-08T12:08:40;19.48;;;9.63;;
78131;SDS011;67381;47.672;9.380;2024-03-08T12:11:07;19.92;;;10.20;;
78131;SDS011;67381;47.672;9.380;2024-03-08T12:13:37;15.82;;;9.45;;
78131;SDS011;67381;47.672;9.380;2024-03-08T12:16:04;16.77;;;8.80;;
78131;SDS011;67381;47.672;9.380;2024-03-08T12:18:35;20.77;;;9.70;;
78131;SDS011;67381;47.672;9.380;2024-03-08T12:21:09;16.45;;;8.50;;
78131;SDS011;67381;47.672;9.380;2024-03-08T12:24:06;17.65;;;9.25;;
78131;SDS011;67381;47.672;9.380;2024-03-08T12:26:38;17.23;;;9.30;;
78131;SDS011;67381;47.672;9.380;2024-03-08T12:29:18;18.05;;;9.60;;
78131;SDS011;67381;47.672;9.380;2024-03-08T12:31:47;17.38;;;9.32;;
78131;SDS011;67381;47.672;9.380;2024-03-08T12:34:14;17.20;;;9.10;;
78131;SDS011;67381;47.672;9.380;2024-03-08T12:36:48;17.75;;;9.25;;
78131;SDS011;67381;47.672;9.380;2024-03-08T12:39:16;17.05;;;9.35;;
78131;SDS011;67381;47.672;9.380;2024-03-08T12:41:43;17.35;;;8.60;;
78131;SDS011;67381;47.672;9.380;2024-03-08T12:44:10;15.63;;;8.82;;
78131;SDS011;67381;47.672;9.380;2024-03-08T12:46:38;15.95;;;8.98;;
78131;SDS011;67381;47.672;9.380;2024-03-08T12:49:08;19.15;;;10.00;;
78131;SDS011;67381;47.672;9.380;2024-03-08T12:51:36;18.30;;;10.32;;
78131;SDS011;67381;47.672;9.380;2024-03-08T12:54:06;16.85;;;9.48;;
78131;SDS011;67381;47.672;9.380;2024-03-08T12:56:36;20.13;;;10.70;;
78131;SDS011;67381;47.672;9.380;2024-03-08T12:59:04;22.48;;;11.07;;
78131;SDS011;67381;47.672;9.380;2024-03-08T13:01:32;20.60;;;10.40;;
78131;SDS011;67381;47.672;9.380;2024-03-08T13:03:59;20.65;;;11.45;;
78131;SDS011;67381;47.672;9.380;2024-03-08T13:06:29;18.60;;;10.55;;
78131;SDS011;67381;47.672;9.380;2024-03-08T13:08:57;19.77;;;9.80;;
78131;SDS011;67381;47.672;9.380;2024-03-08T13:11:25;22.10;;;11.27;;
78131;SDS011;67381;47.672;9.380;2024-03-08T13:13:52;18.45;;;9.93;;
78131;SDS011;67381;47.672;9.380;2024-03-08T13:16:19;17.50;;;9.85;;
78131;SDS011;67381;47.672;9.380;2024-03-08T13:18:46;22.15;;;11.32;;
78131;SDS011;67381;47.672;9.380;2024-03-08T13:21:18;22.70;;;12.13;;
78131;SDS011;67381;47.672;9.380;2024-03-08T13:23:47;22.20;;;11.45;;
78131;SDS011;67381;47.672;9.380;2024-03-08T13:26:16;20.10;;;10.43;;
78131;SDS011;67381;47.672;9.380;2024-03-08T13:28:46;21.95;;;11.13;;
78131;SDS011;67381;47.672;9.380;2024-03-08T13:31:15;19.70;;;11.15;;
78131;SDS011;67381;47.672;9.380;2024-03-08T13:33:42;20.60;;;10.52;;
78131;SDS011;67381;47.672;9.380;2024-03-08T13:36:13;18.55;;;9.60;;
78131;SDS011;67381;47.672;9.380;2024-03-08T13:38:49;21.27;;;10.77;;
78131;SDS011;67381;47.672;9.380;2024-03-08T13:41:16;21.50;;;10.18;;
78131;SDS011;67381;47.672;9.380;2024-03-08T13:43:45;19.80;;;10.07;;
78131;SDS011;67381;47.672;9.380;2024-03-08T13:46:12;17.42;;;9.52;;
78131;SDS011;67381;47.672;9.380;2024-03-08T13:48:40;17.67;;;9.23;;
78131;SDS011;67381;47.672;9.380;2024-03-08T13:51:08;17.58;;;9.13;;
78131;SDS011;67381;47.672;9.380;2024-03-08T13:53:37;16.40;;;9.23;;
78131;SDS011;67381;47.672;9.380;2024-03-08T13:56:04;18.48;;;9.18;;
78131;SDS011;67381;47.672;9.380;2024-03-08T13:58:32;17.95;;;9.30;;
78131;SDS011;67381;47.672;9.380;2024-03-08T14:00:59;18.98;;;10.18;;
78131;SDS011;67381;47.672;9.380;2024-03-08T14:03:27;19.55;;;9.77;;
78131;SDS011;67381;47.672;9.380;2024-03-08T14:05:54;17.80;;;10.05;;
78131;SDS011;67381;47.672;9.380;2024-03-08T14:08:22;17.20;;;9.43;;
78131;SDS011;67381;47.672;9.380;2024-03-08T14:10:49;17.13;;;9.88;;
78131;SDS011;67381;47.672;9.380;2024-03-08T14:13:18;17.15;;;9.98;;
78131;SDS011;67381;47.672;9.380;2024-03-08T14:15:45;18.33;;;11.07;;
78131;SDS011;67381;47.672;9.380;2024-03-08T14:18:13;18.90;;;9.98;;
78131;SDS011;67381;47.672;9.380;2024-03-08T14:20:40;16.30;;;9.48;;
78131;SDS011;67381;47.672;9.380;2024-03-08T14:23:08;16.25;;;8.35;;
78131;SDS011;67381;47.672;9.380;2024-03-08T14:25:35;16.10;;;9.07;;
78131;SDS011;67381;47.672;9.380;2024-03-08T14:28:03;16.45;;;8.73;;
78131;SDS011;67381;47.672;9.380;2024-03-08T14:30:34;19.60;;;9.73;;
78131;SDS011;67381;47.672;9.380;2024-03-08T14:33:02;15.38;;;8.77;;
78131;SDS011;67381;47.672;9.380;2024-03-08T14:35:29;16.98;;;8.93;;
78131;SDS011;67381;47.672;9.380;2024-03-08T14:37:56;15.02;;;8.32;;
78131;SDS011;67381;47.672;9.380;2024-03-08T14:40:24;16.83;;;9.05;;
78131;SDS011;67381;47.672;9.380;2024-03-08T14:42:52;14.80;;;8.05;;